sensor_id;sensor_type;location;lat;lon;timestamp;pressure;altitude;pressure_sealevel;temperature;humidity
12203;BME280;6164;42.178;24.622;2022-10-18T00:00:36;101334.25;;;6.70;94.76
12203;BME280;6164;42.178;24.622;2022-10-18T00:03:02;101337.00;;;6.69;94.78
12203;BME280;6164;42.178;24.622;2022-10-18T00:05:30;101328.56;;;6.64;94.58
12203;BME280;6164;42.178;24.622;2022-10-18T00:07:57;101335.19;;;6.57;94.73
12203;BME280;6164;42.178;24.622;2022-10-18T00:10:23;101326.25;;;6.59;94.68
12203;BME280;6164;42.178;24.622;2022-10-18T00:12:50;101323.94;;;6.55;96.13
12203;BME280;6164;42.178;24.622;2022-10-18T00:15:16;101314.09;;;6.58;95.70
12203;BME280;6164;42.178;24.622;2022-10-18T00:17:43;101314.00;;;6.60;95.23
12203;BME280;6164;42.178;24.622;2022-10-18T00:20:10;101311.47;;;6.58;95.80
12203;BME280;6164;42.178;24.622;2022-10-18T00:22:39;101309.50;;;6.62;95.94
12203;BME280;6164;42.178;24.622;2022-10-18T00:25:06;101317.25;;;6.63;95.04
12203;BME280;6164;42.178;24.622;2022-10-18T00:27:36;101314.31;;;6.68;95.86
12203;BME280;6164;42.178;24.622;2022-10-18T00:30:02;101309.91;;;6.68;94.47
12203;BME280;6164;42.178;24.622;2022-10-18T00:32:29;101309.06;;;6.68;93.61
12203;BME280;6164;42.178;24.622;2022-10-18T00:34:56;101308.53;;;6.63;93.74
12203;BME280;6164;42.178;24.622;2022-10-18T00:37:23;101303.28;;;6.50;93.61
12203;BME280;6164;42.178;24.622;2022-10-18T00:39:51;101301.22;;;6.41;94.11
12203;BME280;6164;42.178;24.622;2022-10-18T00:42:18;101301.69;;;6.21;95.23
12203;BME280;6164;42.178;24.622;2022-10-18T00:47:30;101303.97;;;6.13;96.76
12203;BME280;6164;42.178;24.622;2022-10-18T00:49:57;101306.34;;;6.04;97.14
12203;BME280;6164;42.178;24.622;2022-10-18T00:52:27;101309.06;;;5.88;98.37
12203;BME280;6164;42.178;24.622;2022-10-18T00:54:55;101299.34;;;5.90;98.86
12203;BME280;6164;42.178;24.622;2022-10-18T00:57:22;101307.13;;;5.92;99.10
12203;BME280;6164;42.178;24.622;2022-10-18T00:59:49;101307.41;;;5.73;99.19
12203;BME280;6164;42.178;24.622;2022-10-18T01:02:16;101303.09;;;5.72;100.00
12203;BME280;6164;42.178;24.622;2022-10-18T01:04:43;101305.66;;;5.60;100.00
12203;BME280;6164;42.178;24.622;2022-10-18T01:07:12;101304.81;;;5.59;100.00
12203;BME280;6164;42.178;24.622;2022-10-18T01:09:43;101301.91;;;5.50;100.00
12203;BME280;6164;42.178;24.622;2022-10-18T01:12:15;101304.25;;;5.40;100.00
12203;BME280;6164;42.178;24.622;2022-10-18T01:14:53;101301.72;;;5.24;100.00
12203;BME280;6164;42.178;24.622;2022-10-18T01:17:24;101305.53;;;5.19;100.00
12203;BME280;6164;42.178;24.622;2022-10-18T01:20:09;101300.31;;;5.05;100.00
12203;BME280;6164;42.178;24.622;2022-10-18T01:22:40;101292.66;;;5.02;100.00
12203;BME280;6164;42.178;24.622;2022-10-18T01:25:13;101290.22;;;4.99;100.00
12203;BME280;6164;42.178;24.622;2022-10-18T01:27:46;101295.34;;;5.14;100.00
12203;BME280;6164;42.178;24.622;2022-10-18T01:30:22;101287.69;;;5.25;100.00
12203;BME280;6164;42.178;24.622;2022-10-18T01:32:55;101286.88;;;5.25;100.00
12203;BME280;6164;42.178;24.622;2022-10-18T01:35:25;101283.56;;;5.35;100.00
12203;BME280;6164;42.178;24.622;2022-10-18T01:37:53;101279.19;;;5.36;100.00
12203;BME280;6164;42.178;24.622;2022-10-18T01:40:21;101281.53;;;5.26;100.00
12203;BME280;6164;42.178;24.622;2022-10-18T01:42:49;101285.81;;;5.27;100.00
12203;BME280;6164;42.178;24.622;2022-10-18T01:45:17;101275.25;;;5.29;100.00
12203;BME280;6164;42.178;24.622;2022-10-18T01:47:45;101274.03;;;5.34;100.00
12203;BME280;6164;42.178;24.622;2022-10-18T01:50:13;101283.41;;;5.38;100.00
12203;BME280;6164;42.178;24.622;2022-10-18T01:52:46;101278.72;;;5.44;100.00
12203;BME280;6164;42.178;24.622;2022-10-18T01:55:13;101278.34;;;5.50;100.00
12203;BME280;6164;42.178;24.622;2022-10-18T01:57:40;101272.72;;;5.56;100.00
12203;BME280;6164;42.178;24.622;2022-10-18T02:00:09;101263.09;;;5.56;100.00
12203;BME280;6164;42.178;24.622;2022-10-18T02:02:39;101270.75;;;5.59;100.00
12203;BME280;6164;42.178;24.622;2022-10-18T02:05:12;101259.25;;;5.62;100.00
12203;BME280;6164;42.178;24.622;2022-10-18T02:07:41;101262.69;;;5.62;100.00
12203;BME280;6164;42.178;24.622;2022-10-18T02:10:10;101259.16;;;5.63;99.95
12203;BME280;6164;42.178;24.622;2022-10-18T02:12:39;101257.19;;;5.67;100.00
12203;BME280;6164;42.178;24.622;2022-10-18T02:15:07;101257.06;;;5.68;100.00
12203;BME280;6164;42.178;24.622;2022-10-18T02:17:35;101255.19;;;5.70;99.85
12203;BME280;6164;42.178;24.622;2022-10-18T02:20:03;101246.59;;;5.68;98.95
12203;BME280;6164;42.178;24.622;2022-10-18T02:22:32;101252.56;;;5.70;98.71
12203;BME280;6164;42.178;24.622;2022-10-18T02:25:01;101248.66;;;5.63;98.57
12203;BME280;6164;42.178;24.622;2022-10-18T02:27:28;101249.53;;;5.50;98.90
12203;BME280;6164;42.178;24.622;2022-10-18T02:29:55;101262.13;;;5.57;98.57
12203;BME280;6164;42.178;24.622;2022-10-18T02:32:24;101252.50;;;5.58;97.71
12203;BME280;6164;42.178;24.622;2022-10-18T02:34:54;101240.53;;;5.54;97.55
12203;BME280;6164;42.178;24.622;2022-10-18T02:37:23;101245.84;;;5.52;96.70
12203;BME280;6164;42.178;24.622;2022-10-18T02:39:55;101257.47;;;5.48;96.03
12203;BME280;6164;42.178;24.622;2022-10-18T02:42:22;101256.94;;;5.43;95.50
12203;BME280;6164;42.178;24.622;2022-10-18T02:44:49;101260.56;;;5.40;95.38
12203;BME280;6164;42.178;24.622;2022-10-18T02:47:15;101257.69;;;5.31;95.29
12203;BME280;6164;42.178;24.622;2022-10-18T02:49:42;101255.25;;;5.28;96.28
12203;BME280;6164;42.178;24.622;2022-10-18T02:52:08;101260.88;;;5.22;96.22
12203;BME280;6164;42.178;24.622;2022-10-18T02:54:35;101265.44;;;5.04;97.18
12203;BME280;6164;42.178;24.622;2022-10-18T02:57:02;101272.25;;;4.93;98.07
12203;BME280;6164;42.178;24.622;2022-10-18T02:59:29;101268.97;;;4.89;99.25
12203;BME280;6164;42.178;24.622;2022-10-18T03:01:55;101282.00;;;4.91;99.64
12203;BME280;6164;42.178;24.622;2022-10-18T03:04:22;101282.13;;;4.74;100.00
12203;BME280;6164;42.178;24.622;2022-10-18T03:06:48;101277.63;;;4.62;100.00
12203;BME280;6164;42.178;24.622;2022-10-18T03:09:15;101278.00;;;4.40;100.00
12203;BME280;6164;42.178;24.622;2022-10-18T03:11:41;101285.72;;;4.28;100.00
12203;BME280;6164;42.178;24.622;2022-10-18T03:14:09;101281.44;;;4.27;100.00
12203;BME280;6164;42.178;24.622;2022-10-18T03:16:36;101286.41;;;4.31;100.00
12203;BME280;6164;42.178;24.622;2022-10-18T03:19:02;101284.38;;;4.36;100.00
12203;BME280;6164;42.178;24.622;2022-10-18T03:21:29;101282.09;;;4.30;100.00
12203;BME280;6164;42.178;24.622;2022-10-18T03:23:55;101287.31;;;4.30;100.00
12203;BME280;6164;42.178;24.622;2022-10-18T03:26:22;101285.38;;;4.34;100.00
12203;BME280;6164;42.178;24.622;2022-10-18T03:28:49;101288.34;;;4.28;100.00
12203;BME280;6164;42.178;24.622;2022-10-18T03:31:17;101288.34;;;4.28;100.00
12203;BME280;6164;42.178;24.622;2022-10-18T03:33:43;101294.84;;;4.21;100.00
12203;BME280;6164;42.178;24.622;2022-10-18T03:36:10;101293.94;;;4.22;100.00
12203;BME280;6164;42.178;24.622;2022-10-18T03:38:37;101294.16;;;4.17;100.00
12203;BME280;6164;42.178;24.622;2022-10-18T03:41:03;101298.97;;;4.25;100.00
12203;BME280;6164;42.178;24.622;2022-10-18T03:43:30;101287.97;;;4.34;100.00
12203;BME280;6164;42.178;24.622;2022-10-18T03:45:56;101290.84;;;4.45;100.00
12203;BME280;6164;42.178;24.622;2022-10-18T03:48:24;101293.84;;;4.53;100.00
12203;BME280;6164;42.178;24.622;2022-10-18T03:50:51;101290.69;;;4.62;100.00
12203;BME280;6164;42.178;24.622;2022-10-18T03:53:17;101295.06;;;4.61;100.00
12203;BME280;6164;42.178;24.622;2022-10-18T03:55:44;101293.78;;;4.68;100.00
12203;BME280;6164;42.178;24.622;2022-10-18T03:58:15;101294.38;;;4.73;100.00
12203;BME280;6164;42.178;24.622;2022-10-18T04:00:41;101291.31;;;4.81;100.00
12203;BME280;6164;42.178;24.622;2022-10-18T04:03:08;101297.13;;;4.86;100.00
12203;BME280;6164;42.178;24.622;2022-10-18T04:05:36;101294.31;;;4.89;100.00
12203;BME280;6164;42.178;24.622;2022-10-18T04:08:03;101295.13;;;4.89;100.00
12203;BME280;6164;42.178;24.622;2022-10-18T04:10:29;101290.75;;;4.90;100.00
12203;BME280;6164;42.178;24.622;2022-10-18T04:12:56;101294.22;;;4.90;100.00
12203;BME280;6164;42.178;24.622;2022-10-18T04:15:22;101292.53;;;4.89;100.00
12203;BME280;6164;42.178;24.622;2022-10-18T04:17:49;101285.81;;;4.85;100.00
12203;BME280;6164;42.178;24.622;2022-10-18T04:20:15;101292.31;;;4.78;100.00
12203;BME280;6164;42.178;24.622;2022-10-18T04:22:43;101299.59;;;4.73;100.00
12203;BME280;6164;42.178;24.622;2022-10-18T04:25:10;101296.41;;;4.68;100.00
12203;BME280;6164;42.178;24.622;2022-10-18T04:27:36;101291.63;;;4.61;100.00
12203;BME280;6164;42.178;24.622;2022-10-18T04:30:03;101290.13;;;4.57;100.00
12203;BME280;6164;42.178;24.622;2022-10-18T04:32:30;101287.88;;;4.51;100.00
12203;BME280;6164;42.178;24.622;2022-10-18T04:34:56;101284.69;;;4.46;100.00
12203;BME280;6164;42.178;24.622;2022-10-18T04:37:23;101293.88;;;4.37;100.00
12203;BME280;6164;42.178;24.622;2022-10-18T04:39:50;101289.03;;;4.31;100.00
12203;BME280;6164;42.178;24.622;2022-10-18T04:42:17;101288.63;;;4.23;100.00
12203;BME280;6164;42.178;24.622;2022-10-18T04:44:43;101286.78;;;4.10;100.00
12203;BME280;6164;42.178;24.622;2022-10-18T04:47:10;101293.09;;;4.05;100.00
12203;BME280;6164;42.178;24.622;2022-10-18T04:49:36;101299.16;;;4.06;100.00
12203;BME280;6164;42.178;24.622;2022-10-18T04:52:03;101301.69;;;4.07;100.00
12203;BME280;6164;42.178;24.622;2022-10-18T04:54:29;101297.91;;;4.13;100.00
12203;BME280;6164;42.178;24.622;2022-10-18T04:56:57;101298.72;;;4.14;100.00
12203;BME280;6164;42.178;24.622;2022-10-18T04:59:24;101298.03;;;4.26;100.00
12203;BME280;6164;42.178;24.622;2022-10-18T05:01:50;101305.19;;;4.38;100.00
12203;BME280;6164;42.178;24.622;2022-10-18T05:04:17;101298.41;;;4.49;100.00
12203;BME280;6164;42.178;24.622;2022-10-18T05:06:43;101296.81;;;4.47;100.00
12203;BME280;6164;42.178;24.622;2022-10-18T05:09:10;101288.63;;;4.53;100.00
12203;BME280;6164;42.178;24.622;2022-10-18T05:11:36;101292.47;;;4.61;100.00
12203;BME280;6164;42.178;24.622;2022-10-18T05:14:04;101291.63;;;4.61;100.00
12203;BME280;6164;42.178;24.622;2022-10-18T05:16:31;101293.03;;;4.66;100.00
12203;BME280;6164;42.178;24.622;2022-10-18T05:18:57;101286.88;;;4.67;100.00
12203;BME280;6164;42.178;24.622;2022-10-18T05:21:24;101293.19;;;4.79;100.00
12203;BME280;6164;42.178;24.622;2022-10-18T05:23:53;101301.22;;;4.90;100.00
12203;BME280;6164;42.178;24.622;2022-10-18T05:26:20;101301.34;;;5.02;100.00
12203;BME280;6164;42.178;24.622;2022-10-18T05:28:46;101299.03;;;5.12;100.00
12203;BME280;6164;42.178;24.622;2022-10-18T05:31:15;101295.81;;;5.21;100.00
12203;BME280;6164;42.178;24.622;2022-10-18T05:33:42;101283.59;;;5.21;100.00
12203;BME280;6164;42.178;24.622;2022-10-18T05:36:08;101289.19;;;5.29;100.00
12203;BME280;6164;42.178;24.622;2022-10-18T05:38:36;101292.28;;;5.22;100.00
12203;BME280;6164;42.178;24.622;2022-10-18T05:41:03;101299.78;;;5.14;100.00
12203;BME280;6164;42.178;24.622;2022-10-18T05:43:31;101297.50;;;5.08;100.00
12203;BME280;6164;42.178;24.622;2022-10-18T05:45:57;101299.28;;;5.07;100.00
12203;BME280;6164;42.178;24.622;2022-10-18T05:48:25;101306.19;;;5.22;100.00
12203;BME280;6164;42.178;24.622;2022-10-18T05:50:51;101300.63;;;5.28;100.00
12203;BME280;6164;42.178;24.622;2022-10-18T05:53:18;101301.81;;;5.37;100.00
12203;BME280;6164;42.178;24.622;2022-10-18T05:55:44;101315.09;;;5.48;100.00
12203;BME280;6164;42.178;24.622;2022-10-18T05:58:11;101316.44;;;5.55;100.00
12203;BME280;6164;42.178;24.622;2022-10-18T06:00:37;101312.38;;;5.64;100.00
12203;BME280;6164;42.178;24.622;2022-10-18T06:03:04;101314.63;;;5.70;100.00
12203;BME280;6164;42.178;24.622;2022-10-18T06:05:32;101311.81;;;5.87;100.00
12203;BME280;6164;42.178;24.622;2022-10-18T06:07:58;101313.09;;;5.94;100.00
12203;BME280;6164;42.178;24.622;2022-10-18T06:10:24;101315.88;;;6.05;100.00
12203;BME280;6164;42.178;24.622;2022-10-18T06:12:51;101311.25;;;6.22;100.00
12203;BME280;6164;42.178;24.622;2022-10-18T06:15:17;101320.31;;;6.31;100.00
12203;BME280;6164;42.178;24.622;2022-10-18T06:17:44;101312.72;;;6.53;100.00
12203;BME280;6164;42.178;24.622;2022-10-18T06:20:10;101310.84;;;6.67;100.00
12203;BME280;6164;42.178;24.622;2022-10-18T06:22:41;101313.41;;;6.82;100.00
12203;BME280;6164;42.178;24.622;2022-10-18T06:25:08;101308.81;;;6.98;100.00
12203;BME280;6164;42.178;24.622;2022-10-18T06:27:34;101317.41;;;7.12;100.00
12203;BME280;6164;42.178;24.622;2022-10-18T06:30:01;101312.06;;;7.26;100.00
12203;BME280;6164;42.178;24.622;2022-10-18T06:32:27;101317.13;;;7.29;100.00
12203;BME280;6164;42.178;24.622;2022-10-18T06:34:54;101315.09;;;7.45;100.00
12203;BME280;6164;42.178;24.622;2022-10-18T06:37:20;101311.22;;;7.51;100.00
12203;BME280;6164;42.178;24.622;2022-10-18T06:39:48;101311.50;;;7.59;100.00
12203;BME280;6164;42.178;24.622;2022-10-18T06:42:15;101315.69;;;7.74;100.00
12203;BME280;6164;42.178;24.622;2022-10-18T06:44:41;101310.16;;;7.89;100.00
12203;BME280;6164;42.178;24.622;2022-10-18T06:47:07;101312.91;;;8.00;100.00
12203;BME280;6164;42.178;24.622;2022-10-18T06:49:34;101316.81;;;8.19;100.00
12203;BME280;6164;42.178;24.622;2022-10-18T06:52:00;101309.34;;;8.25;100.00
12203;BME280;6164;42.178;24.622;2022-10-18T06:54:27;101302.00;;;8.41;100.00
12203;BME280;6164;42.178;24.622;2022-10-18T06:56:55;101295.59;;;8.56;100.00
12203;BME280;6164;42.178;24.622;2022-10-18T06:59:22;101302.13;;;8.74;100.00
12203;BME280;6164;42.178;24.622;2022-10-18T07:01:49;101296.50;;;8.79;100.00
12203;BME280;6164;42.178;24.622;2022-10-18T07:04:15;101293.09;;;8.89;100.00
12203;BME280;6164;42.178;24.622;2022-10-18T07:06:42;101296.94;;;9.07;100.00
12203;BME280;6164;42.178;24.622;2022-10-18T07:09:08;101296.09;;;9.18;100.00
12203;BME280;6164;42.178;24.622;2022-10-18T07:11:35;101290.00;;;9.28;100.00
12203;BME280;6164;42.178;24.622;2022-10-18T07:14:03;101287.72;;;9.46;100.00
12203;BME280;6164;42.178;24.622;2022-10-18T07:16:29;101280.66;;;9.58;100.00
12203;BME280;6164;42.178;24.622;2022-10-18T07:18:56;101285.22;;;9.67;100.00
12203;BME280;6164;42.178;24.622;2022-10-18T07:21:23;101274.88;;;9.86;99.61
12203;BME280;6164;42.178;24.622;2022-10-18T07:23:51;101264.28;;;9.97;98.66
12203;BME280;6164;42.178;24.622;2022-10-18T07:26:18;101267.63;;;10.10;99.18
12203;BME280;6164;42.178;24.622;2022-10-18T07:28:46;101266.84;;;10.30;98.61
12203;BME280;6164;42.178;24.622;2022-10-18T07:31:14;101262.69;;;10.48;97.68
12203;BME280;6164;42.178;24.622;2022-10-18T07:33:41;101256.41;;;10.60;97.74
12203;BME280;6164;42.178;24.622;2022-10-18T07:36:08;101252.88;;;10.71;96.88
12203;BME280;6164;42.178;24.622;2022-10-18T07:38:35;101246.22;;;10.76;96.31
12203;BME280;6164;42.178;24.622;2022-10-18T07:41:02;101248.13;;;10.95;96.78
12203;BME280;6164;42.178;24.622;2022-10-18T07:43:33;101242.91;;;11.04;96.04
12203;BME280;6164;42.178;24.622;2022-10-18T07:46:00;101238.81;;;11.21;95.04
12203;BME280;6164;42.178;24.622;2022-10-18T07:48:29;101237.22;;;11.39;94.88
12203;BME280;6164;42.178;24.622;2022-10-18T07:50:56;101233.38;;;11.52;93.90
12203;BME280;6164;42.178;24.622;2022-10-18T07:53:23;101230.22;;;11.68;93.58
12203;BME280;6164;42.178;24.622;2022-10-18T07:55:49;101228.19;;;11.81;92.89
12203;BME280;6164;42.178;24.622;2022-10-18T07:58:16;101220.25;;;12.00;91.05
12203;BME280;6164;42.178;24.622;2022-10-18T08:00:42;101215.13;;;12.08;90.13
12203;BME280;6164;42.178;24.622;2022-10-18T08:03:09;101218.03;;;12.24;89.08
12203;BME280;6164;42.178;24.622;2022-10-18T08:05:37;101223.47;;;12.32;88.14
12203;BME280;6164;42.178;24.622;2022-10-18T08:08:03;101214.13;;;12.38;87.06
12203;BME280;6164;42.178;24.622;2022-10-18T08:10:30;101213.44;;;12.45;86.88
12203;BME280;6164;42.178;24.622;2022-10-18T08:12:56;101209.09;;;12.54;86.81
12203;BME280;6164;42.178;24.622;2022-10-18T08:15:22;101207.66;;;12.69;86.81
12203;BME280;6164;42.178;24.622;2022-10-18T08:17:49;101213.34;;;12.83;85.25
12203;BME280;6164;42.178;24.622;2022-10-18T08:20:16;101199.66;;;12.97;83.96
12203;BME280;6164;42.178;24.622;2022-10-18T08:22:44;101203.69;;;13.11;80.80
12203;BME280;6164;42.178;24.622;2022-10-18T08:25:10;101197.66;;;13.18;79.96
12203;BME280;6164;42.178;24.622;2022-10-18T08:27:37;101185.72;;;13.32;79.99
12203;BME280;6164;42.178;24.622;2022-10-18T08:30:04;101185.91;;;13.48;76.70
12203;BME280;6164;42.178;24.622;2022-10-18T08:32:30;101190.09;;;13.51;73.53
12203;BME280;6164;42.178;24.622;2022-10-18T08:34:57;101178.28;;;13.63;74.42
12203;BME280;6164;42.178;24.622;2022-10-18T08:37:23;101166.31;;;13.76;73.13
12203;BME280;6164;42.178;24.622;2022-10-18T08:39:51;101168.22;;;13.84;69.49
12203;BME280;6164;42.178;24.622;2022-10-18T08:42:34;101171.19;;;13.98;70.53
12203;BME280;6164;42.178;24.622;2022-10-18T08:45:04;101167.66;;;14.15;70.94
12203;BME280;6164;42.178;24.622;2022-10-18T08:47:33;101160.09;;;14.20;69.11
12203;BME280;6164;42.178;24.622;2022-10-18T08:50:01;101159.22;;;14.29;71.08
12203;BME280;6164;42.178;24.622;2022-10-18T08:52:30;101155.91;;;14.35;66.51
12203;BME280;6164;42.178;24.622;2022-10-18T08:55:00;101150.28;;;14.38;65.82
12203;BME280;6164;42.178;24.622;2022-10-18T08:57:28;101147.25;;;14.51;64.77
12203;BME280;6164;42.178;24.622;2022-10-18T08:59:55;101134.81;;;14.60;66.72
12203;BME280;6164;42.178;24.622;2022-10-18T09:02:28;101145.00;;;14.64;65.68
12203;BME280;6164;42.178;24.622;2022-10-18T09:05:02;101137.22;;;14.71;63.87
12203;BME280;6164;42.178;24.622;2022-10-18T09:07:43;101130.31;;;14.78;64.12
12203;BME280;6164;42.178;24.622;2022-10-18T09:10:18;101126.50;;;14.88;65.18
12203;BME280;6164;42.178;24.622;2022-10-18T09:12:54;101134.88;;;15.01;62.47
12203;BME280;6164;42.178;24.622;2022-10-18T09:15:28;101127.78;;;15.10;61.60
12203;BME280;6164;42.178;24.622;2022-10-18T09:18:02;101128.16;;;15.23;60.68
12203;BME280;6164;42.178;24.622;2022-10-18T09:20:36;101118.56;;;15.38;62.01
12203;BME280;6164;42.178;24.622;2022-10-18T09:23:10;101119.97;;;15.42;60.35
12203;BME280;6164;42.178;24.622;2022-10-18T09:25:45;101118.31;;;15.57;60.12
12203;BME280;6164;42.178;24.622;2022-10-18T09:28:15;101119.66;;;15.69;59.20
12203;BME280;6164;42.178;24.622;2022-10-18T09:30:46;101117.69;;;15.79;59.28
12203;BME280;6164;42.178;24.622;2022-10-18T09:36:02;101103.38;;;16.04;60.02
12203;BME280;6164;42.178;24.622;2022-10-18T09:38:31;101108.38;;;16.15;57.89
12203;BME280;6164;42.178;24.622;2022-10-18T09:40:59;101096.84;;;16.23;58.59
12203;BME280;6164;42.178;24.622;2022-10-18T09:43:32;101100.03;;;16.26;57.01
12203;BME280;6164;42.178;24.622;2022-10-18T09:46:00;101089.22;;;16.36;57.84
12203;BME280;6164;42.178;24.622;2022-10-18T09:48:28;101082.00;;;16.44;58.17
12203;BME280;6164;42.178;24.622;2022-10-18T09:50:57;101072.88;;;16.47;57.90
12203;BME280;6164;42.178;24.622;2022-10-18T09:53:27;101077.69;;;16.51;56.96
12203;BME280;6164;42.178;24.622;2022-10-18T09:56:01;101074.00;;;16.52;56.78
12203;BME280;6164;42.178;24.622;2022-10-18T09:58:32;101053.31;;;16.62;57.62
12203;BME280;6164;42.178;24.622;2022-10-18T10:01:03;101049.63;;;16.71;56.89
12203;BME280;6164;42.178;24.622;2022-10-18T10:03:30;101046.44;;;16.76;56.82
12203;BME280;6164;42.178;24.622;2022-10-18T10:06:13;101045.91;;;16.80;57.25
12203;BME280;6164;42.178;24.622;2022-10-18T10:08:41;101037.91;;;16.88;57.34
12203;BME280;6164;42.178;24.622;2022-10-18T10:11:14;101035.19;;;16.96;57.09
12203;BME280;6164;42.178;24.622;2022-10-18T10:13:50;101036.31;;;17.02;56.05
12203;BME280;6164;42.178;24.622;2022-10-18T10:16:20;101032.47;;;17.04;56.53
12203;BME280;6164;42.178;24.622;2022-10-18T10:18:46;101024.78;;;17.09;55.51
12203;BME280;6164;42.178;24.622;2022-10-18T10:21:18;101014.41;;;17.15;55.93
12203;BME280;6164;42.178;24.622;2022-10-18T10:23:48;101023.72;;;17.19;53.56
12203;BME280;6164;42.178;24.622;2022-10-18T10:26:21;101019.03;;;17.21;53.83
12203;BME280;6164;42.178;24.622;2022-10-18T10:28:48;101013.16;;;17.25;53.46
12203;BME280;6164;42.178;24.622;2022-10-18T10:31:16;101012.78;;;17.28;53.30
12203;BME280;6164;42.178;24.622;2022-10-18T10:33:44;100995.72;;;17.37;54.52
12203;BME280;6164;42.178;24.622;2022-10-18T10:36:15;100989.38;;;17.38;53.95
12203;BME280;6164;42.178;24.622;2022-10-18T10:38:42;100966.84;;;17.41;54.94
12203;BME280;6164;42.178;24.622;2022-10-18T10:41:14;100973.31;;;17.46;53.96
12203;BME280;6164;42.178;24.622;2022-10-18T10:43:45;100969.94;;;17.52;53.41
12203;BME280;6164;42.178;24.622;2022-10-18T10:46:15;100969.22;;;17.58;52.42
12203;BME280;6164;42.178;24.622;2022-10-18T10:48:47;100963.34;;;17.63;52.01
12203;BME280;6164;42.178;24.622;2022-10-18T10:51:15;100964.66;;;17.67;50.89
12203;BME280;6164;42.178;24.622;2022-10-18T10:53:43;100953.03;;;17.74;52.01
12203;BME280;6164;42.178;24.622;2022-10-18T10:56:12;100970.84;;;17.82;50.50
12203;BME280;6164;42.178;24.622;2022-10-18T10:58:40;100948.09;;;17.86;50.81
12203;BME280;6164;42.178;24.622;2022-10-18T11:01:19;100957.03;;;17.93;49.07
12203;BME280;6164;42.178;24.622;2022-10-18T11:03:46;100937.63;;;17.99;50.38
12203;BME280;6164;42.178;24.622;2022-10-18T11:08:58;100950.81;;;18.15;48.48
12203;BME280;6164;42.178;24.622;2022-10-18T11:11:27;100958.81;;;18.15;47.68
12203;BME280;6164;42.178;24.622;2022-10-18T11:13:58;100957.41;;;18.19;46.75
12203;BME280;6164;42.178;24.622;2022-10-18T11:16:32;100972.94;;;18.23;46.04
12203;BME280;6164;42.178;24.622;2022-10-18T11:19:01;100962.56;;;18.20;46.00
12203;BME280;6164;42.178;24.622;2022-10-18T11:21:32;100980.13;;;18.23;44.80
12203;BME280;6164;42.178;24.622;2022-10-18T11:23:58;100981.38;;;18.27;44.28
12203;BME280;6164;42.178;24.622;2022-10-18T11:26:34;100985.19;;;18.32;43.82
12203;BME280;6164;42.178;24.622;2022-10-18T11:29:06;100955.88;;;18.39;45.39
12203;BME280;6164;42.178;24.622;2022-10-18T11:31:39;100940.56;;;18.48;46.39
12203;BME280;6164;42.178;24.622;2022-10-18T11:34:12;100948.31;;;18.57;45.35
12203;BME280;6164;42.178;24.622;2022-10-18T11:36:44;100928.66;;;18.65;46.26
12203;BME280;6164;42.178;24.622;2022-10-18T11:39:18;100968.78;;;18.65;42.70
12203;BME280;6164;42.178;24.622;2022-10-18T11:41:49;101009.00;;;18.71;40.90
12203;BME280;6164;42.178;24.622;2022-10-18T11:44:20;101039.88;;;18.74;39.42
12203;BME280;6164;42.178;24.622;2022-10-18T11:46:54;101061.66;;;18.85;38.93
12203;BME280;6164;42.178;24.622;2022-10-18T11:49:26;101082.94;;;18.93;37.79
12203;BME280;6164;42.178;24.622;2022-10-18T11:51:58;101086.94;;;18.97;38.20
12203;BME280;6164;42.178;24.622;2022-10-18T11:57:14;101061.22;;;19.17;38.83
12203;BME280;6164;42.178;24.622;2022-10-18T11:59:44;101055.31;;;19.22;39.60
12203;BME280;6164;42.178;24.622;2022-10-18T12:02:23;101036.09;;;19.33;39.87
12203;BME280;6164;42.178;24.622;2022-10-18T12:04:57;101024.50;;;19.47;40.42
12203;BME280;6164;42.178;24.622;2022-10-18T12:07:25;101062.34;;;19.58;38.04
12203;BME280;6164;42.178;24.622;2022-10-18T12:09:53;101047.38;;;19.71;39.54
12203;BME280;6164;42.178;24.622;2022-10-18T12:12:20;101048.94;;;19.80;38.83
12203;BME280;6164;42.178;24.622;2022-10-18T12:14:50;101050.06;;;19.92;38.66
12203;BME280;6164;42.178;24.622;2022-10-18T12:17:19;101049.50;;;19.96;38.88
12203;BME280;6164;42.178;24.622;2022-10-18T12:19:49;101074.31;;;20.05;36.40
12203;BME280;6164;42.178;24.622;2022-10-18T12:22:19;101048.75;;;20.09;39.06
12203;BME280;6164;42.178;24.622;2022-10-18T12:24:46;101101.47;;;20.16;35.82
12203;BME280;6164;42.178;24.622;2022-10-18T12:27:13;101103.59;;;20.27;37.05
12203;BME280;6164;42.178;24.622;2022-10-18T12:29:41;101102.00;;;20.33;36.72
12203;BME280;6164;42.178;24.622;2022-10-18T12:32:13;101095.22;;;20.37;34.95
12203;BME280;6164;42.178;24.622;2022-10-18T12:34:41;101102.50;;;20.49;37.19
12203;BME280;6164;42.178;24.622;2022-10-18T12:37:15;101106.50;;;20.60;36.23
12203;BME280;6164;42.178;24.622;2022-10-18T12:39:47;101202.09;;;20.61;31.62
12203;BME280;6164;42.178;24.622;2022-10-18T12:42:16;101248.69;;;20.53;30.90
12203;BME280;6164;42.178;24.622;2022-10-18T12:44:43;101278.00;;;20.55;30.22
12203;BME280;6164;42.178;24.622;2022-10-18T12:47:21;101287.00;;;20.68;31.22
12203;BME280;6164;42.178;24.622;2022-10-18T12:49:54;101257.16;;;20.78;32.96
12203;BME280;6164;42.178;24.622;2022-10-18T12:52:23;101247.50;;;20.83;33.49
12203;BME280;6164;42.178;24.622;2022-10-18T12:55:00;101252.72;;;20.91;31.91
12203;BME280;6164;42.178;24.622;2022-10-18T13:00:23;101253.94;;;21.10;32.65
12203;BME280;6164;42.178;24.622;2022-10-18T13:03:34;101232.81;;;21.07;34.35
12203;BME280;6164;42.178;24.622;2022-10-18T13:06:02;101198.56;;;21.16;34.62
12203;BME280;6164;42.178;24.622;2022-10-18T13:08:35;101203.59;;;21.25;33.55
12203;BME280;6164;42.178;24.622;2022-10-18T13:13:51;101204.69;;;21.37;34.56
12203;BME280;6164;42.178;24.622;2022-10-18T13:16:32;101203.28;;;21.41;33.90